Time;durP1;ratioP1;P1;durP2;ratioP2;P2;SDS_P1;SDS_P2;PMS_P1;PMS_P2;Temp;Humidity;BMP_temperature;BMP_pressure;BME280_temperature;BME280_humidity;BME280_pressure;Samples;Min_cycle;Max_cycle;Signal;HPM_P1;HPM_P2
2024/01/15 00:00:44;;;;;;;186.27;50.63;;;;;;;;;;4993762;28;20410;-44
2024/01/15 00:03:11;;;;;;;185.83;50.00;;;;;;;;;;4992994;28;20474;-44
2024/01/15 00:05:38;;;;;;;185.90;50.33;;;;;;;;;;4993693;28;20403;-45
2024/01/15 00:08:04;;;;;;;184.75;49.90;;;;;;;;;;4993747;28;20189;-45
2024/01/15 00:10:30;;;;;;;184.70;49.63;;;;;;;;;;4993689;28;20171;-45
2024/01/15 00:12:56;;;;;;;185.17;49.90;;;;;;;;;;4993227;28;20177;-45
2024/01/15 00:15:22;;;;;;;186.98;50.55;;;;;;;;;;4993313;28;20447;-45
2024/01/15 00:17:48;;;;;;;175.02;52.33;;;;;;;;;;4992969;28;20169;-45
2024/01/15 00:20:14;;;;;;;187.37;51.10;;;;;;;;;;4991875;28;20173;-44
2024/01/15 00:22:40;;;;;;;189.15;53.30;;;;;;;;;;4992412;28;20607;-44
2024/01/15 00:25:06;;;;;;;154.80;45.07;;;;;;;;;;4993397;28;20191;-45
2024/01/15 00:27:32;;;;;;;184.88;49.60;;;;;;;;;;4993423;28;20447;-45
2024/01/15 00:29:58;;;;;;;181.68;50.25;;;;;;;;;;4993342;28;20169;-44
2024/01/15 00:32:24;;;;;;;186.80;50.17;;;;;;;;;;4992817;28;20188;-44
2024/01/15 00:34:50;;;;;;;183.30;48.35;;;;;;;;;;4992903;28;20196;-45
2024/01/15 00:37:16;;;;;;;185.05;49.92;;;;;;;;;;4993593;28;20174;-45
2024/01/15 00:39:42;;;;;;;184.13;49.27;;;;;;;;;;4993225;28;20176;-44
2024/01/15 00:42:08;;;;;;;173.17;47.87;;;;;;;;;;4993001;28;20408;-45
2024/01/15 00:44:34;;;;;;;185.55;50.03;;;;;;;;;;4992416;28;20447;-45
2024/01/15 00:47:01;;;;;;;184.67;49.70;;;;;;;;;;4993003;28;20548;-45
2024/01/15 00:49:27;;;;;;;184.70;48.95;;;;;;;;;;4993037;28;20409;-45
2024/01/15 00:51:53;;;;;;;186.52;49.38;;;;;;;;;;4993283;28;20161;-45
2024/01/15 00:54:19;;;;;;;183.97;48.67;;;;;;;;;;4992430;28;20694;-44
2024/01/15 00:56:45;;;;;;;185.57;49.50;;;;;;;;;;4993000;28;20892;-44
2024/01/15 00:59:14;;;;;;;186.37;49.83;;;;;;;;;;4991937;28;20904;-45
2024/01/15 01:01:42;;;;;;;185.20;49.45;;;;;;;;;;4992695;28;20408;-45
2024/01/15 01:04:08;;;;;;;185.95;49.55;;;;;;;;;;4991991;28;20207;-45
2024/01/15 01:06:34;;;;;;;187.00;50.78;;;;;;;;;;4992747;28;20254;-44
2024/01/15 01:09:00;;;;;;;185.40;50.03;;;;;;;;;;4992781;28;20222;-44
2024/01/15 01:11:26;;;;;;;187.30;50.67;;;;;;;;;;4992744;28;20411;-45
2024/01/15 01:13:52;;;;;;;186.98;50.35;;;;;;;;;;4991893;28;20424;-44
2024/01/15 01:16:18;;;;;;;186.27;50.30;;;;;;;;;;4992596;28;20165;-45
2024/01/15 01:18:44;;;;;;;186.97;50.27;;;;;;;;;;4992709;28;20405;-44
2024/01/15 01:21:10;;;;;;;186.90;50.43;;;;;;;;;;4992560;28;20841;-44
2024/01/15 01:23:36;;;;;;;136.77;39.17;;;;;;;;;;4991785;28;20880;-45
2024/01/15 01:26:02;;;;;;;120.82;34.92;;;;;;;;;;4992456;28;20819;-45
2024/01/15 01:28:28;;;;;;;11.20;10.20;;;;;;;;;;4992472;28;20216;-45
2024/01/15 01:30:54;;;;;;;9.40;8.45;;;;;;;;;;4992444;28;20408;-45
2024/01/15 01:33:20;;;;;;;10.83;9.73;;;;;;;;;;4992124;28;20200;-44
2024/01/15 01:35:47;;;;;;;8.65;7.65;;;;;;;;;;4992414;28;20453;-45
2024/01/15 01:38:13;;;;;;;9.02;8.05;;;;;;;;;;4992479;28;20653;-44
2024/01/15 01:40:39;;;;;;;9.27;8.32;;;;;;;;;;4992336;28;20171;-44
2024/01/15 01:43:10;;;;;;;8.63;7.82;;;;;;;;;;4991539;28;20196;-44
2024/01/15 01:45:36;;;;;;;9.27;8.05;;;;;;;;;;4992192;28;20705;-44
2024/01/15 01:48:02;;;;;;;10.70;9.70;;;;;;;;;;4992349;28;20252;-45
2024/01/15 01:50:29;;;;;;;10.23;9.20;;;;;;;;;;4992389;28;20910;-44
2024/01/15 01:52:56;;;;;;;9.57;8.57;;;;;;;;;;4991695;28;20415;-45
2024/01/15 01:55:22;;;;;;;10.30;9.30;;;;;;;;;;4992274;28;20208;-44
2024/01/15 01:57:48;;;;;;;11.88;10.77;;;;;;;;;;4992118;28;20184;-44
2024/01/15 02:00:14;;;;;;;9.40;8.50;;;;;;;;;;4992200;28;20173;-45
2024/01/15 02:02:40;;;;;;;14.30;12.90;;;;;;;;;;4990475;28;20454;-44
2024/01/15 02:05:07;;;;;;;9.73;8.73;;;;;;;;;;4991691;28;20277;-44
2024/01/15 02:07:35;;;;;;;10.63;9.63;;;;;;;;;;4991517;28;20403;-44
2024/01/15 02:10:01;;;;;;;11.52;10.38;;;;;;;;;;4993068;28;20169;-44
2024/01/15 02:12:27;;;;;;;11.07;9.97;;;;;;;;;;4995275;28;20252;-45
2024/01/15 02:14:53;;;;;;;10.18;9.25;;;;;;;;;;4995703;28;20432;-44
2024/01/15 02:17:19;;;;;;;10.20;9.20;;;;;;;;;;4995954;28;20177;-45
2024/01/15 02:19:45;;;;;;;11.77;10.67;;;;;;;;;;4995736;28;20414;-45
2024/01/15 02:22:11;;;;;;;10.20;9.20;;;;;;;;;;4995707;28;20464;-44
2024/01/15 02:24:37;;;;;;;11.80;10.60;;;;;;;;;;4994723;28;20416;-44
2024/01/15 02:27:03;;;;;;;12.70;11.60;;;;;;;;;;4995503;28;20512;-43
2024/01/15 02:29:29;;;;;;;10.45;9.50;;;;;;;;;;4995779;28;20428;-44
2024/01/15 02:31:55;;;;;;;11.20;10.20;;;;;;;;;;4995605;28;20672;-45
2024/01/15 02:34:21;;;;;;;11.88;10.80;;;;;;;;;;4994937;28;20427;-45
2024/01/15 02:36:47;;;;;;;11.27;10.23;;;;;;;;;;4995513;28;20204;-44
2024/01/15 02:39:13;;;;;;;11.53;10.53;;;;;;;;;;4995580;28;20197;-44
2024/01/15 02:41:39;;;;;;;11.05;9.95;;;;;;;;;;4995223;28;20404;-45
2024/01/15 02:44:05;;;;;;;11.03;9.93;;;;;;;;;;4995260;28;20255;-45
2024/01/15 02:46:32;;;;;;;10.60;9.60;;;;;;;;;;4995363;28;20403;-44
2024/01/15 02:48:58;;;;;;;14.02;12.82;;;;;;;;;;4995384;28;20453;-43
2024/01/15 02:51:24;;;;;;;20.33;19.13;;;;;;;;;;4995430;28;20173;-44
2024/01/15 02:53:50;;;;;;;12.57;11.53;;;;;;;;;;4994438;28;20443;-44
2024/01/15 02:56:16;;;;;;;20.98;19.67;;;;;;;;;;4995095;28;20413;-43
2024/01/15 02:58:42;;;;;;;29.30;27.57;;;;;;;;;;4995134;28;20168;-44
2024/01/15 03:01:08;;;;;;;26.23;24.80;;;;;;;;;;4995080;28;20405;-44
2024/01/15 03:03:34;;;;;;;27.27;25.73;;;;;;;;;;4994329;28;20507;-45
2024/01/15 03:06:01;;;;;;;33.27;31.07;;;;;;;;;;4994929;28;20451;-45
2024/01/15 03:08:29;;;;;;;32.40;30.50;;;;;;;;;;4991937;28;20479;-44
2024/01/15 03:10:55;;;;;;;31.90;30.10;;;;;;;;;;4994676;28;20180;-44
2024/01/15 03:13:22;;;;;;;33.57;31.57;;;;;;;;;;4993804;28;20197;-45
2024/01/15 03:15:48;;;;;;;35.85;33.53;;;;;;;;;;4994615;28;20414;-44
2024/01/15 03:18:14;;;;;;;21.33;20.00;;;;;;;;;;4999347;28;20227;-44
2024/01/15 03:20:40;;;;;;;14.20;13.20;;;;;;;;;;4997446;28;20637;-44
2024/01/15 03:23:06;;;;;;;16.30;15.00;;;;;;;;;;4995816;28;20490;-44
2024/01/15 03:25:32;;;;;;;16.85;15.75;;;;;;;;;;4994251;28;20420;-45
2024/01/15 03:27:57;;;;;;;15.60;14.50;;;;;;;;;;4995970;28;20173;-44
2024/01/15 03:30:23;;;;;;;12.40;11.50;;;;;;;;;;4994403;28;20418;-43
2024/01/15 03:32:50;;;;;;;14.83;13.53;;;;;;;;;;4998214;28;20416;-43
2024/01/15 03:35:16;;;;;;;10.90;9.85;;;;;;;;;;4994144;28;20447;-44
2024/01/15 03:37:42;;;;;;;13.15;12.00;;;;;;;;;;4999173;28;20180;-43
2024/01/15 03:40:08;;;;;;;10.20;9.20;;;;;;;;;;4996681;28;20642;-44
2024/01/15 03:42:34;;;;;;;16.98;15.18;;;;;;;;;;4993528;28;20456;-44
2024/01/15 03:45:00;;;;;;;10.50;9.53;;;;;;;;;;4997030;28;20204;-44
2024/01/15 03:47:26;;;;;;;11.07;10.03;;;;;;;;;;4993976;28;20489;-44
2024/01/15 03:49:52;;;;;;;12.82;11.77;;;;;;;;;;5000159;28;20492;-43
2024/01/15 03:52:18;;;;;;;17.50;16.30;;;;;;;;;;4993986;28;20602;-44
2024/01/15 03:54:44;;;;;;;8.60;7.80;;;;;;;;;;4993142;28;20424;-44
2024/01/15 03:57:10;;;;;;;8.17;6.87;;;;;;;;;;4996745;28;20414;-44
2024/01/15 03:59:36;;;;;;;8.33;7.33;;;;;;;;;;4995002;28;20406;-44
2024/01/15 04:02:03;;;;;;;9.23;8.33;;;;;;;;;;4997353;28;20400;-45
2024/01/15 04:04:29;;;;;;;8.93;8.00;;;;;;;;;;4991125;28;20470;-44
2024/01/15 04:06:55;;;;;;;10.03;9.00;;;;;;;;;;5001226;28;20548;-43
2024/01/15 04:09:21;;;;;;;8.93;8.10;;;;;;;;;;4993536;28;20823;-44
2024/01/15 04:11:47;;;;;;;14.07;12.93;;;;;;;;;;4996593;28;20776;-44
2024/01/15 04:14:13;;;;;;;20.07;18.63;;;;;;;;;;4991706;28;20864;-44
2024/01/15 04:16:39;;;;;;;18.53;17.37;;;;;;;;;;4996354;28;20462;-44
2024/01/15 04:19:05;;;;;;;21.40;20.23;;;;;;;;;;4996699;28;20416;-44
2024/01/15 04:21:31;;;;;;;24.33;22.93;;;;;;;;;;4992328;28;20467;-44
2024/01/15 04:23:57;;;;;;;32.42;30.33;;;;;;;;;;4993633;28;20472;-43
2024/01/15 04:26:23;;;;;;;38.10;34.97;;;;;;;;;;4993193;28;20193;-44
2024/01/15 04:28:49;;;;;;;39.50;35.77;;;;;;;;;;4993333;28;20296;-44
2024/01/15 04:31:25;;;;;;;37.00;34.35;;;;;;;;;;4999147;28;20759;-44
2024/01/15 04:33:51;;;;;;;31.75;29.77;;;;;;;;;;4998006;28;20203;-45
2024/01/15 04:36:17;;;;;;;37.13;34.55;;;;;;;;;;4994510;28;20224;-44
2024/01/15 04:38:43;;;;;;;34.78;32.45;;;;;;;;;;4993231;28;20645;-44
2024/01/15 04:41:16;;;;;;;11.23;10.17;;;;;;;;;;4995586;28;20180;-44
2024/01/15 04:43:42;;;;;;;14.73;13.43;;;;;;;;;;4996487;28;20528;-43
2024/01/15 04:46:08;;;;;;;8.40;7.17;;;;;;;;;;4998768;28;20169;-44
2024/01/15 04:48:34;;;;;;;9.20;8.30;;;;;;;;;;4993053;28;20893;-44
2024/01/15 04:51:00;;;;;;;9.50;8.55;;;;;;;;;;4993126;28;20415;-44
2024/01/15 04:53:26;;;;;;;11.98;10.75;;;;;;;;;;4994593;28;20196;-44
2024/01/15 04:55:52;;;;;;;9.77;8.90;;;;;;;;;;4992876;28;20669;-45
2024/01/15 04:58:18;;;;;;;9.38;8.57;;;;;;;;;;4992794;28;20900;-45
2024/01/15 05:00:44;;;;;;;8.93;8.27;;;;;;;;;;4992717;28;20188;-44
2024/01/15 05:03:10;;;;;;;15.37;14.27;;;;;;;;;;4999309;28;20470;-44
2024/01/15 05:05:36;;;;;;;18.05;16.90;;;;;;;;;;4992638;28;20491;-43
2024/01/15 05:08:02;;;;;;;28.42;26.73;;;;;;;;;;4992497;28;20256;-44
2024/01/15 05:10:28;;;;;;;12.27;11.33;;;;;;;;;;4992580;28;20645;-43
2024/01/15 05:12:54;;;;;;;18.43;17.13;;;;;;;;;;4996589;28;20414;-44
2024/01/15 05:15:20;;;;;;;38.03;35.00;;;;;;;;;;4995037;28;20458;-44
2024/01/15 05:17:45;;;;;;;16.13;15.03;;;;;;;;;;4998347;28;20423;-44
2024/01/15 05:20:11;;;;;;;10.60;9.70;;;;;;;;;;4991438;28;20483;-48
2024/01/15 05:22:37;;;;;;;19.83;18.13;;;;;;;;;;4991860;28;20547;-43
2024/01/15 05:25:04;;;;;;;12.50;11.63;;;;;;;;;;4991290;28;20435;-44
2024/01/15 05:27:29;;;;;;;33.42;28.63;;;;;;;;;;4992480;28;20184;-44
2024/01/15 05:29:55;;;;;;;37.07;33.30;;;;;;;;;;4992510;28;20176;-43
2024/01/15 05:32:23;;;;;;;31.50;28.42;;;;;;;;;;4992097;28;20435;-44
2024/01/15 05:34:49;;;;;;;10.00;9.10;;;;;;;;;;4992008;28;20272;-44
2024/01/15 05:37:15;;;;;;;23.43;22.00;;;;;;;;;;4992448;28;20396;-45
2024/01/15 05:39:41;;;;;;;11.30;10.23;;;;;;;;;;4992374;28;20435;-45
2024/01/15 05:42:07;;;;;;;12.53;11.63;;;;;;;;;;4992429;28;20818;-44
2024/01/15 05:44:33;;;;;;;19.87;18.67;;;;;;;;;;4991964;28;20848;-43
2024/01/15 05:46:59;;;;;;;33.87;30.03;;;;;;;;;;4996385;28;20497;-44
2024/01/15 05:49:25;;;;;;;19.90;18.60;;;;;;;;;;4996447;28;20415;-44
2024/01/15 05:51:51;;;;;;;20.48;19.25;;;;;;;;;;4996410;28;20614;-43
2024/01/15 05:54:17;;;;;;;28.07;26.40;;;;;;;;;;4995609;28;20193;-44
2024/01/15 05:56:43;;;;;;;41.05;37.35;;;;;;;;;;4996427;28;20426;-44
2024/01/15 05:59:11;;;;;;;40.97;37.03;;;;;;;;;;4996212;28;20629;-44
2024/01/15 06:01:37;;;;;;;46.30;38.80;;;;;;;;;;4996022;28;20404;-44
2024/01/15 06:04:03;;;;;;;39.47;35.23;;;;;;;;;;4995293;28;20209;-44
2024/01/15 06:06:29;;;;;;;46.80;39.33;;;;;;;;;;4996082;28;20522;-45
2024/01/15 06:08:55;;;;;;;46.20;40.97;;;;;;;;;;4996067;28;20392;-44
2024/01/15 06:11:21;;;;;;;48.87;40.67;;;;;;;;;;4996061;28;20399;-44
2024/01/15 06:13:46;;;;;;;49.13;39.43;;;;;;;;;;4995260;28;20837;-44
2024/01/15 06:16:16;;;;;;;37.87;33.73;;;;;;;;;;4995782;28;20749;-43
2024/01/15 06:18:42;;;;;;;44.88;39.35;;;;;;;;;;4995891;28;20404;-44
2024/01/15 06:21:10;;;;;;;45.60;39.83;;;;;;;;;;4995731;28;20652;-44
2024/01/15 06:23:36;;;;;;;45.17;39.00;;;;;;;;;;4994991;28;20547;-44
2024/01/15 06:26:03;;;;;;;44.20;33.73;;;;;;;;;;4995747;28;20274;-44
2024/01/15 06:28:29;;;;;;;21.90;20.45;;;;;;;;;;4995724;28;20468;-44
2024/01/15 06:30:55;;;;;;;32.42;30.25;;;;;;;;;;4995563;28;20181;-44
2024/01/15 06:33:21;;;;;;;26.60;23.77;;;;;;;;;;4994889;28;20195;-44
2024/01/15 06:35:47;;;;;;;32.43;30.07;;;;;;;;;;4995490;28;20484;-44
2024/01/15 06:38:13;;;;;;;41.58;37.95;;;;;;;;;;4995523;28;20495;-44
2024/01/15 06:40:45;;;;;;;41.03;37.03;;;;;;;;;;4995468;28;20179;-43
2024/01/15 06:43:11;;;;;;;38.92;35.30;;;;;;;;;;4994476;28;20484;-44
2024/01/15 06:45:37;;;;;;;34.37;27.57;;;;;;;;;;4995466;28;20634;-44
2024/01/15 06:48:03;;;;;;;54.27;31.10;;;;;;;;;;4995296;28;20899;-44
2024/01/15 06:50:29;;;;;;;46.40;28.98;;;;;;;;;;4995301;28;20407;-43
2024/01/15 06:52:55;;;;;;;36.03;28.73;;;;;;;;;;4991723;28;20195;-43
2024/01/15 06:55:21;;;;;;;31.93;25.10;;;;;;;;;;4995230;28;20464;-44
2024/01/15 06:57:47;;;;;;;34.88;26.95;;;;;;;;;;4996889;28;20764;-44
2024/01/15 07:00:13;;;;;;;30.70;23.73;;;;;;;;;;4994926;28;20268;-44
2024/01/15 07:02:39;;;;;;;20.60;18.45;;;;;;;;;;4995812;28;20835;-44
2024/01/15 07:05:05;;;;;;;28.83;25.80;;;;;;;;;;4997081;28;20193;-44
2024/01/15 07:07:31;;;;;;;16.88;15.05;;;;;;;;;;4994153;28;20418;-44
2024/01/15 07:09:57;;;;;;;29.50;24.38;;;;;;;;;;4993918;28;20169;-43
2024/01/15 07:12:23;;;;;;;31.52;26.38;;;;;;;;;;4993739;28;20173;-43
2024/01/15 07:14:49;;;;;;;24.42;20.17;;;;;;;;;;4993677;28;20267;-45
2024/01/15 07:17:15;;;;;;;37.25;27.90;;;;;;;;;;4999284;28;20680;-44
2024/01/15 07:19:41;;;;;;;41.50;33.45;;;;;;;;;;4994157;28;20173;-44
2024/01/15 07:22:07;;;;;;;52.00;28.95;;;;;;;;;;4994705;28;20188;-44
2024/01/15 07:24:34;;;;;;;56.70;32.27;;;;;;;;;;4993773;28;20205;-44
2024/01/15 07:27:00;;;;;;;67.95;32.53;;;;;;;;;;4994347;28;20434;-45
2024/01/15 07:29:26;;;;;;;81.57;33.35;;;;;;;;;;4997935;28;20183;-44
2024/01/15 07:31:53;;;;;;;67.07;31.37;;;;;;;;;;4999564;28;20200;-44
2024/01/15 07:34:19;;;;;;;115.90;41.53;;;;;;;;;;5000161;28;20581;-44
2024/01/15 07:36:45;;;;;;;121.30;43.97;;;;;;;;;;4994483;28;20189;-44
2024/01/15 07:39:11;;;;;;;74.93;32.90;;;;;;;;;;4993031;28;20203;-45
2024/01/15 07:41:37;;;;;;;120.38;42.90;;;;;;;;;;4994179;28;20169;-44
2024/01/15 07:44:03;;;;;;;102.00;40.50;;;;;;;;;;4990043;28;20214;-44
2024/01/15 07:46:29;;;;;;;91.28;41.28;;;;;;;;;;4998012;28;20181;-44
2024/01/15 07:48:57;;;;;;;42.50;23.20;;;;;;;;;;4991247;28;20623;-44
2024/01/15 07:51:23;;;;;;;116.43;43.33;;;;;;;;;;4993850;28;20416;-44
2024/01/15 07:53:49;;;;;;;83.70;33.20;;;;;;;;;;4993283;28;20197;-44
2024/01/15 07:56:15;;;;;;;51.63;39.83;;;;;;;;;;4993407;28;20185;-44
2024/01/15 07:58:41;;;;;;;52.13;42.90;;;;;;;;;;4991825;28;20416;-44
2024/01/15 08:01:08;;;;;;;46.03;33.33;;;;;;;;;;4991160;28;20184;-43
2024/01/15 08:03:34;;;;;;;21.45;17.88;;;;;;;;;;4993484;28;20254;-44
2024/01/15 08:06:00;;;;;;;21.42;19.33;;;;;;;;;;4993520;28;20598;-43
2024/01/15 08:08:26;;;;;;;23.67;21.30;;;;;;;;;;4994387;28;20184;-44
2024/01/15 08:10:55;;;;;;;89.95;33.75;;;;;;;;;;4990230;28;20173;-44
2024/01/15 08:13:21;;;;;;;51.28;23.20;;;;;;;;;;4991400;28;20205;-44
2024/01/15 08:15:47;;;;;;;135.50;46.88;;;;;;;;;;4993239;28;20176;-44
2024/01/15 08:18:13;;;;;;;27.48;23.95;;;;;;;;;;4992998;28;20235;-44
2024/01/15 08:20:39;;;;;;;98.23;37.50;;;;;;;;;;4993575;28;20181;-43
2024/01/15 08:23:05;;;;;;;71.18;32.33;;;;;;;;;;4992523;28;20447;-45
2024/01/15 08:25:31;;;;;;;102.38;38.17;;;;;;;;;;4993268;28;20648;-44
2024/01/15 08:27:57;;;;;;;29.03;22.73;;;;;;;;;;4993824;28;20173;-44
2024/01/15 08:30:27;;;;;;;119.00;43.45;;;;;;;;;;4993471;28;20528;-44
2024/01/15 08:32:56;;;;;;;126.07;44.72;;;;;;;;;;4992147;28;20607;-45
2024/01/15 08:35:22;;;;;;;139.63;46.38;;;;;;;;;;4993066;28;20207;-44
2024/01/15 08:37:52;;;;;;;145.77;47.17;;;;;;;;;;4993143;28;20516;-44
2024/01/15 08:40:18;;;;;;;68.45;35.95;;;;;;;;;;4993269;28;20216;-44
2024/01/15 08:42:48;;;;;;;28.08;22.65;;;;;;;;;;4992639;28;20211;-45
2024/01/15 08:45:14;;;;;;;62.05;31.38;;;;;;;;;;4990163;28;20189;-45
2024/01/15 08:47:40;;;;;;;97.40;39.17;;;;;;;;;;4991695;28;20204;-45
2024/01/15 08:50:10;;;;;;;127.93;43.80;;;;;;;;;;4992500;28;20192;-45
2024/01/15 08:52:36;;;;;;;142.25;51.95;;;;;;;;;;4992298;28;20471;-44
2024/01/15 08:55:02;;;;;;;145.18;45.78;;;;;;;;;;4995129;28;20197;-44
2024/01/15 08:57:28;;;;;;;140.20;45.73;;;;;;;;;;4993029;28;20493;-44
2024/01/15 08:59:54;;;;;;;137.77;45.00;;;;;;;;;;4993266;28;20412;-45
2024/01/15 09:02:20;;;;;;;144.35;45.75;;;;;;;;;;4992522;28;20415;-46
2024/01/15 09:04:46;;;;;;;147.40;45.80;;;;;;;;;;4991300;28;20209;-45
2024/01/15 09:07:12;;;;;;;149.30;46.50;;;;;;;;;;4992025;28;20207;-44
2024/01/15 09:09:38;;;;;;;154.00;47.50;;;;;;;;;;4992779;28;20408;-45
2024/01/15 09:12:04;;;;;;;166.63;48.47;;;;;;;;;;4992521;28;20424;-45
2024/01/15 09:14:30;;;;;;;137.75;45.88;;;;;;;;;;4991725;28;20440;-44
2024/01/15 09:16:57;;;;;;;153.30;46.63;;;;;;;;;;4999854;28;20189;-45
2024/01/15 09:19:22;;;;;;;137.75;45.97;;;;;;;;;;4991447;28;20419;-45
2024/01/15 09:21:48;;;;;;;152.05;47.20;;;;;;;;;;4991221;28;20557;-46
2024/01/15 09:24:14;;;;;;;149.73;47.57;;;;;;;;;;4991513;28;20216;-44
2024/01/15 09:26:40;;;;;;;159.63;49.03;;;;;;;;;;4994549;28;20434;-44
2024/01/15 09:29:06;;;;;;;160.70;48.03;;;;;;;;;;4995491;28;20404;-45
2024/01/15 09:31:32;;;;;;;159.65;48.88;;;;;;;;;;4999272;28;20219;-45
2024/01/15 09:34:00;;;;;;;162.13;48.57;;;;;;;;;;4991181;28;20636;-44
2024/01/15 09:36:26;;;;;;;167.80;50.60;;;;;;;;;;4991038;28;20404;-45
2024/01/15 09:38:52;;;;;;;155.73;49.17;;;;;;;;;;4990665;28;20184;-45
2024/01/15 09:41:18;;;;;;;144.17;46.10;;;;;;;;;;4990827;28;20170;-44
2024/01/15 09:43:51;;;;;;;137.23;47.03;;;;;;;;;;4989514;28;20594;-46
2024/01/15 09:46:17;;;;;;;139.63;47.10;;;;;;;;;;4989925;28;20423;-45
2024/01/15 09:48:43;;;;;;;145.32;47.85;;;;;;;;;;4991171;28;20260;-45
2024/01/15 09:51:10;;;;;;;170.60;52.90;;;;;;;;;;4989956;28;20561;-45
2024/01/15 09:53:37;;;;;;;158.32;49.65;;;;;;;;;;4991439;28;20277;-45
2024/01/15 09:56:03;;;;;;;152.38;48.35;;;;;;;;;;4991136;28;20166;-45
2024/01/15 09:58:30;;;;;;;144.43;47.78;;;;;;;;;;4990672;28;20196;-45
2024/01/15 10:00:56;;;;;;;155.13;46.70;;;;;;;;;;4992198;28;20252;-45
2024/01/15 10:03:22;;;;;;;128.65;44.80;;;;;;;;;;4991166;28;20197;-45
2024/01/15 10:05:50;;;;;;;127.93;56.57;;;;;;;;;;4990250;28;20179;-45
2024/01/15 10:08:17;;;;;;;132.93;44.67;;;;;;;;;;4990846;28;20415;-45
2024/01/15 10:10:42;;;;;;;155.68;48.40;;;;;;;;;;4991955;28;20169;-45
2024/01/15 10:13:09;;;;;;;156.13;46.80;;;;;;;;;;4991392;28;20260;-45
2024/01/15 10:15:38;;;;;;;160.15;46.97;;;;;;;;;;4991807;28;20408;-45
2024/01/15 10:18:04;;;;;;;159.95;48.10;;;;;;;;;;4991999;28;20923;-45
2024/01/15 10:20:32;;;;;;;142.23;46.00;;;;;;;;;;4991994;28;20196;-45
2024/01/15 10:22:58;;;;;;;155.95;48.38;;;;;;;;;;4991220;28;20184;-45
2024/01/15 10:25:25;;;;;;;157.68;48.47;;;;;;;;;;4991703;28;20187;-45
2024/01/15 10:28:01;;;;;;;134.68;46.00;;;;;;;;;;4991838;28;20176;-46
2024/01/15 10:30:27;;;;;;;51.28;33.97;;;;;;;;;;4991862;28;20174;-45
2024/01/15 10:33:00;;;;;;;96.67;35.37;;;;;;;;;;4995116;28;20596;-45
2024/01/15 10:35:27;;;;;;;96.70;40.97;;;;;;;;;;4995340;28;20426;-45
2024/01/15 10:37:53;;;;;;;32.83;29.52;;;;;;;;;;4995755;28;20228;-46
2024/01/15 10:40:19;;;;;;;84.03;33.85;;;;;;;;;;4995835;28;20176;-45
2024/01/15 10:42:47;;;;;;;146.93;49.95;;;;;;;;;;4994530;28;20245;-45
2024/01/15 10:45:13;;;;;;;115.40;44.28;;;;;;;;;;4995141;28;20181;-45
2024/01/15 10:47:39;;;;;;;113.03;44.72;;;;;;;;;;4995239;28;20204;-45
2024/01/15 10:50:07;;;;;;;72.40;39.75;;;;;;;;;;4995244;28;20176;-45
2024/01/15 10:52:34;;;;;;;152.85;54.10;;;;;;;;;;4994550;28;20219;-45
2024/01/15 10:55:00;;;;;;;56.10;35.25;;;;;;;;;;4995022;28;20199;-45
2024/01/15 10:57:26;;;;;;;61.80;39.33;;;;;;;;;;4994953;28;20244;-44
2024/01/15 10:59:52;;;;;;;153.73;46.97;;;;;;;;;;4994899;28;20184;-45
2024/01/15 11:02:18;;;;;;;162.23;49.17;;;;;;;;;;4995002;28;20169;-45
2024/01/15 11:04:44;;;;;;;116.47;46.15;;;;;;;;;;4994197;28;20464;-45
2024/01/15 11:07:12;;;;;;;113.90;44.80;;;;;;;;;;4994924;28;20168;-45
2024/01/15 11:09:38;;;;;;;160.60;49.95;;;;;;;;;;4994717;28;20396;-44
2024/01/15 11:12:08;;;;;;;160.48;49.08;;;;;;;;;;4994800;28;20239;-45
2024/01/15 11:14:46;;;;;;;149.48;47.22;;;;;;;;;;4994117;28;20259;-45
2024/01/15 11:17:13;;;;;;;159.55;50.10;;;;;;;;;;4994524;28;20173;-45
2024/01/15 11:19:42;;;;;;;158.57;49.13;;;;;;;;;;4993936;28;20207;-45
2024/01/15 11:22:09;;;;;;;161.32;49.15;;;;;;;;;;4994654;28;20180;-45
2024/01/15 11:24:37;;;;;;;161.32;47.80;;;;;;;;;;4993822;28;20267;-45
2024/01/15 11:27:04;;;;;;;161.25;48.38;;;;;;;;;;4992545;28;20212;-45
2024/01/15 11:29:31;;;;;;;163.90;50.97;;;;;;;;;;4994498;28;20169;-45
2024/01/15 11:31:58;;;;;;;164.98;49.42;;;;;;;;;;4994457;28;20196;-45
2024/01/15 11:34:43;;;;;;;160.48;49.13;;;;;;;;;;4993608;28;20223;-44
2024/01/15 11:37:09;;;;;;;162.45;50.47;;;;;;;;;;4994174;28;20231;-45
2024/01/15 11:39:44;;;;;;;166.60;52.20;;;;;;;;;;4994318;28;20177;-45
2024/01/15 11:42:11;;;;;;;165.00;51.85;;;;;;;;;;4993481;28;20884;-45
2024/01/15 11:44:38;;;;;;;164.65;50.85;;;;;;;;;;4993164;28;20216;-45
2024/01/15 11:47:05;;;;;;;167.18;51.05;;;;;;;;;;4994146;28;20176;-45
2024/01/15 11:49:49;;;;;;;167.98;52.22;;;;;;;;;;4994049;28;20169;-44
2024/01/15 11:52:19;;;;;;;165.75;51.13;;;;;;;;;;4993983;28;20755;-45
2024/01/15 11:54:49;;;;;;;161.88;49.65;;;;;;;;;;4993652;28;20569;-45
2024/01/15 11:57:19;;;;;;;165.10;51.28;;;;;;;;;;4994035;28;20173;-45
2024/01/15 11:59:45;;;;;;;167.23;51.03;;;;;;;;;;4993905;28;20578;-45
2024/01/15 12:02:12;;;;;;;145.13;56.42;;;;;;;;;;4993564;28;20172;-44
2024/01/15 12:04:39;;;;;;;167.98;53.00;;;;;;;;;;4993045;28;20203;-44
2024/01/15 12:07:05;;;;;;;169.00;51.00;;;;;;;;;;4993878;28;20207;-45
2024/01/15 12:09:31;;;;;;;170.23;51.80;;;;;;;;;;4993895;28;20255;-44
2024/01/15 12:12:05;;;;;;;169.57;52.27;;;;;;;;;;4993683;28;20400;-45
2024/01/15 12:14:31;;;;;;;169.70;53.28;;;;;;;;;;4992734;28;20419;-44
2024/01/15 12:16:58;;;;;;;169.55;51.42;;;;;;;;;;4993651;28;20535;-44
2024/01/15 12:19:24;;;;;;;171.13;54.05;;;;;;;;;;4992903;28;20192;-44
2024/01/15 12:21:51;;;;;;;169.10;53.63;;;;;;;;;;4992291;28;20172;-45
2024/01/15 12:24:17;;;;;;;171.00;53.78;;;;;;;;;;4989759;28;20208;-45
2024/01/15 12:26:44;;;;;;;171.40;52.65;;;;;;;;;;4992621;28;20191;-45
2024/01/15 12:29:11;;;;;;;166.25;51.53;;;;;;;;;;4993352;28;20208;-45
2024/01/15 12:31:37;;;;;;;165.18;51.20;;;;;;;;;;4992060;28;20231;-45
2024/01/15 12:34:03;;;;;;;164.10;51.47;;;;;;;;;;4992449;28;20201;-45
2024/01/15 12:36:32;;;;;;;161.85;49.45;;;;;;;;;;4993245;28;20408;-45
2024/01/15 12:39:02;;;;;;;164.95;52.75;;;;;;;;;;4993274;28;20212;-45
2024/01/15 12:41:28;;;;;;;165.90;52.35;;;;;;;;;;4993036;28;20189;-45
2024/01/15 12:43:54;;;;;;;159.37;50.40;;;;;;;;;;4992115;28;20244;-45
2024/01/15 12:46:20;;;;;;;160.70;50.15;;;;;;;;;;4993032;28;20435;-45
2024/01/15 12:48:46;;;;;;;161.00;51.08;;;;;;;;;;4993014;28;20677;-45
2024/01/15 12:51:12;;;;;;;163.97;51.53;;;;;;;;;;4993055;28;20248;-45
2024/01/15 12:53:38;;;;;;;179.20;68.93;;;;;;;;;;4990613;28;20483;-45
2024/01/15 12:56:04;;;;;;;166.05;53.67;;;;;;;;;;4992631;28;20454;-45
2024/01/15 12:58:30;;;;;;;163.25;51.85;;;;;;;;;;4992716;28;20599;-44
2024/01/15 13:00:56;;;;;;;164.50;51.57;;;;;;;;;;4992677;28;20204;-44
2024/01/15 13:03:22;;;;;;;162.35;51.00;;;;;;;;;;4991859;28;20984;-45
2024/01/15 13:05:49;;;;;;;162.77;50.08;;;;;;;;;;4992545;28;20560;-45
2024/01/15 13:08:15;;;;;;;165.20;50.40;;;;;;;;;;4992613;28;20469;-44
2024/01/15 13:10:42;;;;;;;163.43;51.30;;;;;;;;;;4992495;28;20268;-44
2024/01/15 13:13:08;;;;;;;162.88;50.55;;;;;;;;;;4991836;28;20172;-44
2024/01/15 13:15:34;;;;;;;163.10;51.45;;;;;;;;;;4992524;28;20204;-44
2024/01/15 13:18:00;;;;;;;162.97;50.50;;;;;;;;;;4992536;28;20169;-45
2024/01/15 13:20:26;;;;;;;165.25;50.33;;;;;;;;;;4992413;28;20426;-44
2024/01/15 13:22:52;;;;;;;166.60;50.67;;;;;;;;;;4991749;28;20189;-45
2024/01/15 13:25:17;;;;;;;165.27;49.17;;;;;;;;;;4991991;28;20423;-45
2024/01/15 13:27:43;;;;;;;159.03;49.77;;;;;;;;;;4992260;28;20457;-45
2024/01/15 13:30:11;;;;;;;160.85;50.45;;;;;;;;;;4992267;28;20403;-45
2024/01/15 13:32:37;;;;;;;166.25;56.67;;;;;;;;;;4991676;28;20247;-44
2024/01/15 13:35:06;;;;;;;162.57;50.60;;;;;;;;;;4992213;28;20189;-44
2024/01/15 13:37:32;;;;;;;162.30;50.15;;;;;;;;;;4992261;28;20193;-44
2024/01/15 13:39:58;;;;;;;162.33;50.73;;;;;;;;;;4991869;28;20196;-44
2024/01/15 13:42:27;;;;;;;165.07;50.57;;;;;;;;;;4992025;28;20458;-45
2024/01/15 13:44:53;;;;;;;166.13;52.38;;;;;;;;;;4991845;28;20452;-45
2024/01/15 13:47:19;;;;;;;163.67;51.47;;;;;;;;;;4992363;28;20177;-44
2024/01/15 13:49:44;;;;;;;167.20;53.00;;;;;;;;;;4992139;28;20408;-44
2024/01/15 13:52:10;;;;;;;168.60;52.70;;;;;;;;;;4992020;28;20201;-44
2024/01/15 13:54:36;;;;;;;169.55;52.72;;;;;;;;;;4991235;28;20428;-45
2024/01/15 13:57:02;;;;;;;169.13;51.63;;;;;;;;;;4992290;28;20181;-44
2024/01/15 13:59:28;;;;;;;166.07;51.37;;;;;;;;;;4992184;28;20470;-45
2024/01/15 14:01:54;;;;;;;169.07;52.67;;;;;;;;;;4991962;28;20404;-44
2024/01/15 14:04:20;;;;;;;168.77;51.90;;;;;;;;;;4991307;28;20236;-45
2024/01/15 14:06:46;;;;;;;171.63;52.83;;;;;;;;;;4994266;28;20393;-45
2024/01/15 14:09:14;;;;;;;172.13;51.83;;;;;;;;;;4995824;28;20676;-44